sensor_id;sensor_type;location;lat;lon;timestamp;P1;durP1;ratioP1;P2;durP2;ratioP2
22268;SDS011;11303;50.772;19.670;2023-05-02T00:00:21;15.55;;;7.85;;
22268;SDS011;11303;50.772;19.670;2023-05-02T00:02:22;17.02;;;8.73;;
22268;SDS011;11303;50.772;19.670;2023-05-02T00:04:24;19.80;;;7.97;;
22268;SDS011;11303;50.772;19.670;2023-05-02T00:06:25;19.33;;;8.50;;
22268;SDS011;11303;50.772;19.670;2023-05-02T00:08:27;15.85;;;7.75;;
22268;SDS011;11303;50.772;19.670;2023-05-02T00:10:29;17.38;;;8.43;;
22268;SDS011;11303;50.772;19.670;2023-05-02T00:12:30;18.52;;;8.45;;
22268;SDS011;11303;50.772;19.670;2023-05-02T00:14:32;17.40;;;8.80;;
22268;SDS011;11303;50.772;19.670;2023-05-02T00:16:34;17.60;;;8.25;;
22268;SDS011;11303;50.772;19.670;2023-05-02T00:18:35;17.40;;;7.75;;
22268;SDS011;11303;50.772;19.670;2023-05-02T00:20:38;13.48;;;6.90;;
22268;SDS011;11303;50.772;19.670;2023-05-02T00:22:40;10.40;;;6.30;;
22268;SDS011;11303;50.772;19.670;2023-05-02T00:24:41;12.88;;;6.70;;
22268;SDS011;11303;50.772;19.670;2023-05-02T00:26:43;16.58;;;7.82;;
22268;SDS011;11303;50.772;19.670;2023-05-02T00:28:44;17.10;;;8.27;;
22268;SDS011;11303;50.772;19.670;2023-05-02T00:30:45;20.33;;;8.40;;
22268;SDS011;11303;50.772;19.670;2023-05-02T00:32:47;15.98;;;7.07;;
22268;SDS011;11303;50.772;19.670;2023-05-02T00:34:49;17.48;;;7.70;;
22268;SDS011;11303;50.772;19.670;2023-05-02T00:36:51;18.13;;;7.75;;
22268;SDS011;11303;50.772;19.670;2023-05-02T00:38:52;14.68;;;7.90;;
22268;SDS011;11303;50.772;19.670;2023-05-02T00:40:53;16.08;;;8.05;;
22268;SDS011;11303;50.772;19.670;2023-05-02T00:42:55;16.90;;;7.78;;
22268;SDS011;11303;50.772;19.670;2023-05-02T00:44:56;21.17;;;8.05;;
22268;SDS011;11303;50.772;19.670;2023-05-02T00:46:59;18.20;;;8.50;;
22268;SDS011;11303;50.772;19.670;2023-05-02T00:49:01;17.10;;;8.30;;
22268;SDS011;11303;50.772;19.670;2023-05-02T00:51:03;16.42;;;8.85;;
22268;SDS011;11303;50.772;19.670;2023-05-02T00:53:09;19.17;;;9.30;;
22268;SDS011;11303;50.772;19.670;2023-05-02T00:55:11;16.23;;;7.57;;
22268;SDS011;11303;50.772;19.670;2023-05-02T00:57:12;16.42;;;8.50;;
22268;SDS011;11303;50.772;19.670;2023-05-02T00:59:13;12.23;;;6.45;;
22268;SDS011;11303;50.772;19.670;2023-05-02T01:01:25;16.25;;;6.70;;
22268;SDS011;11303;50.772;19.670;2023-05-02T01:03:31;15.45;;;8.00;;
22268;SDS011;11303;50.772;19.670;2023-05-02T01:05:40;16.80;;;8.07;;
22268;SDS011;11303;50.772;19.670;2023-05-02T01:12:27;17.67;;;7.60;;
22268;SDS011;11303;50.772;19.670;2023-05-02T01:14:34;15.27;;;7.03;;
22268;SDS011;11303;50.772;19.670;2023-05-02T01:16:38;13.52;;;6.30;;
22268;SDS011;11303;50.772;19.670;2023-05-02T01:18:41;13.38;;;6.65;;
22268;SDS011;11303;50.772;19.670;2023-05-02T01:20:43;13.07;;;6.88;;
22268;SDS011;11303;50.772;19.670;2023-05-02T01:22:46;15.73;;;6.50;;
22268;SDS011;11303;50.772;19.670;2023-05-02T01:24:53;14.05;;;6.80;;
22268;SDS011;11303;50.772;19.670;2023-05-02T01:29:19;15.32;;;7.13;;
22268;SDS011;11303;50.772;19.670;2023-05-02T01:31:26;14.88;;;7.15;;
22268;SDS011;11303;50.772;19.670;2023-05-02T01:33:29;16.73;;;7.30;;
22268;SDS011;11303;50.772;19.670;2023-05-02T01:35:32;13.95;;;6.95;;
22268;SDS011;11303;50.772;19.670;2023-05-02T01:37:34;12.65;;;7.22;;
22268;SDS011;11303;50.772;19.670;2023-05-02T01:39:37;17.08;;;7.78;;
22268;SDS011;11303;50.772;19.670;2023-05-02T01:41:40;14.30;;;8.35;;
22268;SDS011;11303;50.772;19.670;2023-05-02T01:43:41;20.55;;;8.57;;
22268;SDS011;11303;50.772;19.670;2023-05-02T01:45:44;17.10;;;7.70;;
22268;SDS011;11303;50.772;19.670;2023-05-02T01:47:47;15.77;;;7.30;;
22268;SDS011;11303;50.772;19.670;2023-05-02T01:49:49;16.45;;;7.80;;
22268;SDS011;11303;50.772;19.670;2023-05-02T01:51:50;17.90;;;7.20;;
22268;SDS011;11303;50.772;19.670;2023-05-02T01:53:53;17.70;;;7.78;;
22268;SDS011;11303;50.772;19.670;2023-05-02T01:55:54;15.90;;;8.50;;
22268;SDS011;11303;50.772;19.670;2023-05-02T01:57:57;19.00;;;9.18;;
22268;SDS011;11303;50.772;19.670;2023-05-02T02:00:00;19.65;;;8.80;;
22268;SDS011;11303;50.772;19.670;2023-05-02T02:02:05;19.17;;;8.85;;
22268;SDS011;11303;50.772;19.670;2023-05-02T02:04:08;14.02;;;7.53;;
22268;SDS011;11303;50.772;19.670;2023-05-02T02:06:10;15.88;;;7.68;;
22268;SDS011;11303;50.772;19.670;2023-05-02T02:08:11;15.55;;;7.50;;
22268;SDS011;11303;50.772;19.670;2023-05-02T02:10:13;18.42;;;8.23;;
22268;SDS011;11303;50.772;19.670;2023-05-02T02:12:15;22.40;;;8.73;;
22268;SDS011;11303;50.772;19.670;2023-05-02T02:14:19;21.45;;;7.63;;
22268;SDS011;11303;50.772;19.670;2023-05-02T02:16:23;19.17;;;8.07;;
22268;SDS011;11303;50.772;19.670;2023-05-02T02:18:25;18.17;;;8.20;;
22268;SDS011;11303;50.772;19.670;2023-05-02T02:20:28;19.60;;;9.18;;
22268;SDS011;11303;50.772;19.670;2023-05-02T02:22:30;18.48;;;8.52;;
22268;SDS011;11303;50.772;19.670;2023-05-02T02:24:35;23.95;;;8.32;;
22268;SDS011;11303;50.772;19.670;2023-05-02T02:26:38;20.77;;;7.88;;
22268;SDS011;11303;50.772;19.670;2023-05-02T02:28:39;18.58;;;6.68;;
22268;SDS011;11303;50.772;19.670;2023-05-02T02:30:41;18.30;;;7.05;;
22268;SDS011;11303;50.772;19.670;2023-05-02T02:32:42;14.98;;;7.68;;
22268;SDS011;11303;50.772;19.670;2023-05-02T02:34:44;17.98;;;7.30;;
22268;SDS011;11303;50.772;19.670;2023-05-02T02:36:46;15.13;;;6.93;;
22268;SDS011;11303;50.772;19.670;2023-05-02T02:41:13;15.32;;;7.07;;
22268;SDS011;11303;50.772;19.670;2023-05-02T02:43:18;17.60;;;7.30;;
22268;SDS011;11303;50.772;19.670;2023-05-02T02:47:26;15.75;;;7.18;;
22268;SDS011;11303;50.772;19.670;2023-05-02T02:51:46;14.73;;;7.00;;
22268;SDS011;11303;50.772;19.670;2023-05-02T02:53:59;16.38;;;7.95;;
22268;SDS011;11303;50.772;19.670;2023-05-02T02:56:14;13.63;;;7.35;;
22268;SDS011;11303;50.772;19.670;2023-05-02T02:58:20;14.25;;;6.82;;
22268;SDS011;11303;50.772;19.670;2023-05-02T03:00:27;16.63;;;7.18;;
22268;SDS011;11303;50.772;19.670;2023-05-02T03:02:29;11.75;;;7.07;;
22268;SDS011;11303;50.772;19.670;2023-05-02T03:04:33;16.17;;;7.18;;
22268;SDS011;11303;50.772;19.670;2023-05-02T03:06:34;14.25;;;6.97;;
22268;SDS011;11303;50.772;19.670;2023-05-02T03:08:39;16.58;;;6.90;;
22268;SDS011;11303;50.772;19.670;2023-05-02T03:10:41;13.85;;;6.55;;
22268;SDS011;11303;50.772;19.670;2023-05-02T03:12:42;15.05;;;8.02;;
22268;SDS011;11303;50.772;19.670;2023-05-02T03:14:44;14.45;;;8.43;;
22268;SDS011;11303;50.772;19.670;2023-05-02T03:16:45;15.75;;;7.30;;
22268;SDS011;11303;50.772;19.670;2023-05-02T03:18:47;16.20;;;7.55;;
22268;SDS011;11303;50.772;19.670;2023-05-02T03:20:48;13.75;;;7.10;;
22268;SDS011;11303;50.772;19.670;2023-05-02T03:22:50;13.13;;;7.15;;
22268;SDS011;11303;50.772;19.670;2023-05-02T03:24:52;13.18;;;6.32;;
22268;SDS011;11303;50.772;19.670;2023-05-02T03:26:54;14.32;;;7.40;;
22268;SDS011;11303;50.772;19.670;2023-05-02T03:28:56;15.60;;;7.57;;
22268;SDS011;11303;50.772;19.670;2023-05-02T03:30:57;16.60;;;9.63;;
22268;SDS011;11303;50.772;19.670;2023-05-02T03:32:59;22.40;;;11.05;;
22268;SDS011;11303;50.772;19.670;2023-05-02T03:35:01;27.77;;;14.77;;
22268;SDS011;11303;50.772;19.670;2023-05-02T03:37:03;42.30;;;20.48;;
22268;SDS011;11303;50.772;19.670;2023-05-02T03:39:04;64.32;;;31.65;;
22268;SDS011;11303;50.772;19.670;2023-05-02T03:41:07;90.20;;;46.13;;
22268;SDS011;11303;50.772;19.670;2023-05-02T03:43:08;70.70;;;38.28;;
22268;SDS011;11303;50.772;19.670;2023-05-02T03:45:09;41.25;;;26.80;;
22268;SDS011;11303;50.772;19.670;2023-05-02T03:47:11;26.05;;;15.93;;
22268;SDS011;11303;50.772;19.670;2023-05-02T03:49:14;19.00;;;11.02;;
22268;SDS011;11303;50.772;19.670;2023-05-02T03:51:15;14.45;;;9.15;;
22268;SDS011;11303;50.772;19.670;2023-05-02T03:53:16;14.25;;;9.10;;
22268;SDS011;11303;50.772;19.670;2023-05-02T03:55:18;17.02;;;9.05;;
22268;SDS011;11303;50.772;19.670;2023-05-02T03:57:19;15.05;;;9.20;;
22268;SDS011;11303;50.772;19.670;2023-05-02T03:59:21;15.85;;;6.88;;
22268;SDS011;11303;50.772;19.670;2023-05-02T04:01:22;10.80;;;6.55;;
22268;SDS011;11303;50.772;19.670;2023-05-02T04:03:24;12.55;;;6.38;;
22268;SDS011;11303;50.772;19.670;2023-05-02T04:05:29;12.15;;;6.85;;
22268;SDS011;11303;50.772;19.670;2023-05-02T04:07:31;12.40;;;7.28;;
22268;SDS011;11303;50.772;19.670;2023-05-02T04:09:32;13.82;;;7.57;;
22268;SDS011;11303;50.772;19.670;2023-05-02T04:11:34;18.10;;;7.18;;
22268;SDS011;11303;50.772;19.670;2023-05-02T04:13:35;15.95;;;7.22;;
22268;SDS011;11303;50.772;19.670;2023-05-02T04:15:37;11.35;;;7.03;;
22268;SDS011;11303;50.772;19.670;2023-05-02T04:17:38;12.73;;;7.07;;
22268;SDS011;11303;50.772;19.670;2023-05-02T04:19:41;14.43;;;7.07;;
22268;SDS011;11303;50.772;19.670;2023-05-02T04:21:43;13.50;;;7.82;;
22268;SDS011;11303;50.772;19.670;2023-05-02T04:23:44;15.02;;;7.95;;
22268;SDS011;11303;50.772;19.670;2023-05-02T04:25:52;13.82;;;7.43;;
22268;SDS011;11303;50.772;19.670;2023-05-02T04:27:55;16.05;;;7.70;;
22268;SDS011;11303;50.772;19.670;2023-05-02T04:29:56;12.38;;;6.45;;
22268;SDS011;11303;50.772;19.670;2023-05-02T04:31:58;11.80;;;6.90;;
22268;SDS011;11303;50.772;19.670;2023-05-02T04:34:00;13.70;;;7.15;;
22268;SDS011;11303;50.772;19.670;2023-05-02T04:36:01;12.27;;;6.78;;
22268;SDS011;11303;50.772;19.670;2023-05-02T04:38:04;12.73;;;7.80;;
22268;SDS011;11303;50.772;19.670;2023-05-02T04:40:05;14.70;;;8.30;;
22268;SDS011;11303;50.772;19.670;2023-05-02T04:42:07;15.20;;;8.70;;
22268;SDS011;11303;50.772;19.670;2023-05-02T04:44:09;16.33;;;8.65;;
22268;SDS011;11303;50.772;19.670;2023-05-02T04:46:10;17.08;;;9.38;;
22268;SDS011;11303;50.772;19.670;2023-05-02T04:48:12;12.80;;;7.97;;
22268;SDS011;11303;50.772;19.670;2023-05-02T04:50:14;17.80;;;9.20;;
22268;SDS011;11303;50.772;19.670;2023-05-02T04:52:15;17.92;;;9.75;;
22268;SDS011;11303;50.772;19.670;2023-05-02T04:54:17;17.00;;;7.55;;
22268;SDS011;11303;50.772;19.670;2023-05-02T04:56:18;16.05;;;8.23;;
22268;SDS011;11303;50.772;19.670;2023-05-02T04:58:20;15.82;;;8.27;;
22268;SDS011;11303;50.772;19.670;2023-05-02T05:00:21;15.23;;;7.22;;
22268;SDS011;11303;50.772;19.670;2023-05-02T05:02:23;13.02;;;6.85;;
22268;SDS011;11303;50.772;19.670;2023-05-02T05:04:26;12.82;;;6.50;;
22268;SDS011;11303;50.772;19.670;2023-05-02T05:06:27;10.00;;;6.07;;
22268;SDS011;11303;50.772;19.670;2023-05-02T05:08:29;8.98;;;5.95;;
22268;SDS011;11303;50.772;19.670;2023-05-02T05:10:30;10.40;;;6.03;;
22268;SDS011;11303;50.772;19.670;2023-05-02T05:12:32;10.73;;;5.88;;
22268;SDS011;11303;50.772;19.670;2023-05-02T05:14:33;10.18;;;5.28;;
22268;SDS011;11303;50.772;19.670;2023-05-02T05:16:35;12.05;;;5.85;;
22268;SDS011;11303;50.772;19.670;2023-05-02T05:18:37;8.68;;;4.78;;
22268;SDS011;11303;50.772;19.670;2023-05-02T05:20:42;11.18;;;5.57;;
22268;SDS011;11303;50.772;19.670;2023-05-02T05:22:43;8.80;;;5.43;;
22268;SDS011;11303;50.772;19.670;2023-05-02T05:24:51;14.80;;;5.40;;
22268;SDS011;11303;50.772;19.670;2023-05-02T05:26:53;11.32;;;5.38;;
22268;SDS011;11303;50.772;19.670;2023-05-02T05:28:55;9.35;;;6.03;;
22268;SDS011;11303;50.772;19.670;2023-05-02T05:30:56;10.18;;;5.60;;
22268;SDS011;11303;50.772;19.670;2023-05-02T05:32:58;12.18;;;6.15;;
22268;SDS011;11303;50.772;19.670;2023-05-02T05:35:00;10.10;;;4.95;;
22268;SDS011;11303;50.772;19.670;2023-05-02T05:37:20;9.57;;;4.68;;
22268;SDS011;11303;50.772;19.670;2023-05-02T05:39:22;9.07;;;4.20;;
22268;SDS011;11303;50.772;19.670;2023-05-02T05:41:24;6.80;;;3.45;;
22268;SDS011;11303;50.772;19.670;2023-05-02T05:43:25;11.30;;;4.68;;
22268;SDS011;11303;50.772;19.670;2023-05-02T05:45:27;7.75;;;4.13;;
22268;SDS011;11303;50.772;19.670;2023-05-02T05:47:28;7.50;;;4.00;;
22268;SDS011;11303;50.772;19.670;2023-05-02T05:49:30;6.20;;;3.65;;
22268;SDS011;11303;50.772;19.670;2023-05-02T05:51:32;4.88;;;3.55;;
22268;SDS011;11303;50.772;19.670;2023-05-02T05:53:33;7.85;;;3.15;;
22268;SDS011;11303;50.772;19.670;2023-05-02T05:55:35;4.88;;;3.22;;
22268;SDS011;11303;50.772;19.670;2023-05-02T05:57:41;5.10;;;3.33;;
22268;SDS011;11303;50.772;19.670;2023-05-02T05:59:42;3.85;;;2.70;;
22268;SDS011;11303;50.772;19.670;2023-05-02T06:01:44;6.00;;;3.67;;
22268;SDS011;11303;50.772;19.670;2023-05-02T06:03:45;9.15;;;3.53;;
22268;SDS011;11303;50.772;19.670;2023-05-02T06:05:47;5.35;;;3.10;;
22268;SDS011;11303;50.772;19.670;2023-05-02T06:07:48;7.05;;;2.92;;
22268;SDS011;11303;50.772;19.670;2023-05-02T06:09:50;6.38;;;3.20;;
22268;SDS011;11303;50.772;19.670;2023-05-02T06:11:52;6.25;;;2.90;;
22268;SDS011;11303;50.772;19.670;2023-05-02T06:13:53;6.80;;;3.13;;
22268;SDS011;11303;50.772;19.670;2023-05-02T06:15:58;5.97;;;2.50;;
22268;SDS011;11303;50.772;19.670;2023-05-02T06:18:00;4.85;;;2.95;;
22268;SDS011;11303;50.772;19.670;2023-05-02T06:20:02;9.38;;;3.00;;
22268;SDS011;11303;50.772;19.670;2023-05-02T06:22:03;4.75;;;2.85;;
22268;SDS011;11303;50.772;19.670;2023-05-02T06:24:05;5.40;;;3.10;;
22268;SDS011;11303;50.772;19.670;2023-05-02T06:26:06;5.30;;;2.90;;
22268;SDS011;11303;50.772;19.670;2023-05-02T06:28:08;4.20;;;2.70;;
22268;SDS011;11303;50.772;19.670;2023-05-02T06:30:10;5.28;;;2.70;;
22268;SDS011;11303;50.772;19.670;2023-05-02T06:32:11;7.25;;;2.97;;
22268;SDS011;11303;50.772;19.670;2023-05-02T06:34:13;7.53;;;3.03;;
22268;SDS011;11303;50.772;19.670;2023-05-02T06:36:14;7.57;;;5.20;;
22268;SDS011;11303;50.772;19.670;2023-05-02T06:38:16;5.15;;;3.53;;
22268;SDS011;11303;50.772;19.670;2023-05-02T06:40:18;5.60;;;3.10;;
22268;SDS011;11303;50.772;19.670;2023-05-02T06:42:20;6.10;;;2.72;;
22268;SDS011;11303;50.772;19.670;2023-05-02T06:44:21;6.13;;;3.33;;
22268;SDS011;11303;50.772;19.670;2023-05-02T06:46:23;5.60;;;3.03;;
22268;SDS011;11303;50.772;19.670;2023-05-02T06:48:28;4.45;;;2.80;;
22268;SDS011;11303;50.772;19.670;2023-05-02T06:50:29;5.00;;;2.67;;
22268;SDS011;11303;50.772;19.670;2023-05-02T06:52:31;7.28;;;3.17;;
22268;SDS011;11303;50.772;19.670;2023-05-02T06:54:32;3.67;;;2.47;;
22268;SDS011;11303;50.772;19.670;2023-05-02T06:56:34;5.97;;;2.67;;
22268;SDS011;11303;50.772;19.670;2023-05-02T06:58:35;4.13;;;2.20;;
22268;SDS011;11303;50.772;19.670;2023-05-02T07:00:37;4.18;;;2.85;;
22268;SDS011;11303;50.772;19.670;2023-05-02T07:02:38;8.38;;;2.67;;
22268;SDS011;11303;50.772;19.670;2023-05-02T07:04:40;4.25;;;2.15;;
22268;SDS011;11303;50.772;19.670;2023-05-02T07:06:41;4.45;;;2.60;;
22268;SDS011;11303;50.772;19.670;2023-05-02T07:08:43;5.38;;;2.30;;
22268;SDS011;11303;50.772;19.670;2023-05-02T07:10:44;7.43;;;1.90;;
22268;SDS011;11303;50.772;19.670;2023-05-02T07:12:46;4.35;;;2.00;;
22268;SDS011;11303;50.772;19.670;2023-05-02T07:14:47;5.63;;;2.50;;
22268;SDS011;11303;50.772;19.670;2023-05-02T07:16:49;4.22;;;2.35;;
22268;SDS011;11303;50.772;19.670;2023-05-02T07:18:50;5.07;;;2.40;;
22268;SDS011;11303;50.772;19.670;2023-05-02T07:20:52;7.07;;;3.15;;
22268;SDS011;11303;50.772;19.670;2023-05-02T07:22:53;5.85;;;3.47;;
22268;SDS011;11303;50.772;19.670;2023-05-02T07:24:59;4.72;;;2.08;;
22268;SDS011;11303;50.772;19.670;2023-05-02T07:27:01;5.43;;;2.38;;
22268;SDS011;11303;50.772;19.670;2023-05-02T07:29:03;4.28;;;2.28;;
22268;SDS011;11303;50.772;19.670;2023-05-02T07:31:07;29.08;;;3.95;;
22268;SDS011;11303;50.772;19.670;2023-05-02T07:33:08;4.75;;;2.75;;
22268;SDS011;11303;50.772;19.670;2023-05-02T07:35:10;6.00;;;2.63;;
22268;SDS011;11303;50.772;19.670;2023-05-02T07:37:11;4.78;;;2.55;;
22268;SDS011;11303;50.772;19.670;2023-05-02T07:39:13;7.50;;;2.58;;
22268;SDS011;11303;50.772;19.670;2023-05-02T07:41:14;5.18;;;2.58;;
22268;SDS011;11303;50.772;19.670;2023-05-02T07:43:16;5.80;;;2.65;;
22268;SDS011;11303;50.772;19.670;2023-05-02T07:45:17;4.63;;;2.67;;
22268;SDS011;11303;50.772;19.670;2023-05-02T07:47:19;4.97;;;2.70;;
22268;SDS011;11303;50.772;19.670;2023-05-02T07:49:20;5.88;;;3.10;;
22268;SDS011;11303;50.772;19.670;2023-05-02T07:51:22;4.55;;;3.03;;
22268;SDS011;11303;50.772;19.670;2023-05-02T07:53:23;4.28;;;2.83;;
22268;SDS011;11303;50.772;19.670;2023-05-02T07:55:25;6.72;;;3.30;;
22268;SDS011;11303;50.772;19.670;2023-05-02T07:57:30;6.32;;;2.92;;
22268;SDS011;11303;50.772;19.670;2023-05-02T07:59:32;6.88;;;2.80;;
22268;SDS011;11303;50.772;19.670;2023-05-02T08:01:33;6.88;;;2.92;;
22268;SDS011;11303;50.772;19.670;2023-05-02T08:03:35;6.70;;;3.28;;
22268;SDS011;11303;50.772;19.670;2023-05-02T08:05:38;4.40;;;3.60;;
22268;SDS011;11303;50.772;19.670;2023-05-02T08:07:39;7.13;;;3.92;;
22268;SDS011;11303;50.772;19.670;2023-05-02T08:09:41;3.97;;;3.00;;
22268;SDS011;11303;50.772;19.670;2023-05-02T08:11:42;7.28;;;4.05;;
22268;SDS011;11303;50.772;19.670;2023-05-02T08:13:44;6.25;;;3.10;;
22268;SDS011;11303;50.772;19.670;2023-05-02T08:15:45;9.55;;;3.35;;
22268;SDS011;11303;50.772;19.670;2023-05-02T08:17:47;4.32;;;2.65;;
22268;SDS011;11303;50.772;19.670;2023-05-02T08:19:48;4.30;;;2.78;;
22268;SDS011;11303;50.772;19.670;2023-05-02T08:21:50;3.70;;;2.75;;
22268;SDS011;11303;50.772;19.670;2023-05-02T08:23:52;4.55;;;3.10;;
22268;SDS011;11303;50.772;19.670;2023-05-02T08:25:57;6.05;;;2.65;;
22268;SDS011;11303;50.772;19.670;2023-05-02T08:27:59;5.05;;;2.65;;
22268;SDS011;11303;50.772;19.670;2023-05-02T08:30:00;7.18;;;3.42;;
22268;SDS011;11303;50.772;19.670;2023-05-02T08:32:02;5.32;;;2.63;;
22268;SDS011;11303;50.772;19.670;2023-05-02T08:34:04;7.88;;;2.80;;
22268;SDS011;11303;50.772;19.670;2023-05-02T08:36:09;4.00;;;2.63;;
22268;SDS011;11303;50.772;19.670;2023-05-02T08:38:10;6.75;;;2.72;;
22268;SDS011;11303;50.772;19.670;2023-05-02T08:40:12;8.98;;;2.90;;
22268;SDS011;11303;50.772;19.670;2023-05-02T08:42:14;7.53;;;2.83;;
22268;SDS011;11303;50.772;19.670;2023-05-02T08:44:15;4.68;;;2.35;;
22268;SDS011;11303;50.772;19.670;2023-05-02T08:46:17;10.23;;;2.78;;
22268;SDS011;11303;50.772;19.670;2023-05-02T08:48:19;4.35;;;2.15;;
22268;SDS011;11303;50.772;19.670;2023-05-02T08:50:21;7.72;;;3.30;;
22268;SDS011;11303;50.772;19.670;2023-05-02T08:52:22;5.55;;;2.60;;
22268;SDS011;11303;50.772;19.670;2023-05-02T08:54:24;4.88;;;2.50;;
22268;SDS011;11303;50.772;19.670;2023-05-02T08:56:27;5.88;;;2.50;;
22268;SDS011;11303;50.772;19.670;2023-05-02T08:58:28;3.58;;;2.10;;
22268;SDS011;11303;50.772;19.670;2023-05-02T09:00:40;3.38;;;2.30;;
22268;SDS011;11303;50.772;19.670;2023-05-02T09:02:55;4.93;;;2.50;;
22268;SDS011;11303;50.772;19.670;2023-05-02T09:05:00;8.65;;;2.50;;
22268;SDS011;11303;50.772;19.670;2023-05-02T09:07:06;3.50;;;2.67;;
22268;SDS011;11303;50.772;19.670;2023-05-02T09:09:08;3.63;;;2.47;;
22268;SDS011;11303;50.772;19.670;2023-05-02T09:11:11;8.45;;;3.17;;
22268;SDS011;11303;50.772;19.670;2023-05-02T09:13:32;6.10;;;2.55;;
22268;SDS011;11303;50.772;19.670;2023-05-02T09:15:34;3.40;;;2.28;;
22268;SDS011;11303;50.772;19.670;2023-05-02T09:17:42;4.03;;;2.70;;
22268;SDS011;11303;50.772;19.670;2023-05-02T09:19:44;4.03;;;2.60;;
22268;SDS011;11303;50.772;19.670;2023-05-02T09:21:46;5.05;;;2.92;;
22268;SDS011;11303;50.772;19.670;2023-05-02T09:23:51;9.68;;;2.60;;
22268;SDS011;11303;50.772;19.670;2023-05-02T09:25:53;6.25;;;2.42;;
22268;SDS011;11303;50.772;19.670;2023-05-02T09:27:55;5.88;;;2.67;;
22268;SDS011;11303;50.772;19.670;2023-05-02T09:32:17;6.28;;;2.35;;
22268;SDS011;11303;50.772;19.670;2023-05-02T09:34:18;7.35;;;3.85;;
22268;SDS011;11303;50.772;19.670;2023-05-02T09:36:20;8.40;;;4.30;;
22268;SDS011;11303;50.772;19.670;2023-05-02T09:38:21;3.67;;;2.50;;
22268;SDS011;11303;50.772;19.670;2023-05-02T09:40:24;9.57;;;2.70;;
22268;SDS011;11303;50.772;19.670;2023-05-02T09:42:31;10.40;;;3.75;;
22268;SDS011;11303;50.772;19.670;2023-05-02T09:44:36;10.65;;;3.67;;
22268;SDS011;11303;50.772;19.670;2023-05-02T09:46:40;5.63;;;2.75;;
22268;SDS011;11303;50.772;19.670;2023-05-02T09:50:50;4.32;;;2.80;;
22268;SDS011;11303;50.772;19.670;2023-05-02T09:53:04;3.55;;;2.65;;
22268;SDS011;11303;50.772;19.670;2023-05-02T09:55:40;5.22;;;2.95;;
22268;SDS011;11303;50.772;19.670;2023-05-02T09:57:40;5.53;;;2.78;;
22268;SDS011;11303;50.772;19.670;2023-05-02T09:59:52;3.75;;;2.70;;
22268;SDS011;11303;50.772;19.670;2023-05-02T10:01:54;6.32;;;3.42;;
22268;SDS011;11303;50.772;19.670;2023-05-02T10:03:57;4.35;;;3.22;;
22268;SDS011;11303;50.772;19.670;2023-05-02T10:05:58;5.32;;;3.10;;
22268;SDS011;11303;50.772;19.670;2023-05-02T10:08:02;4.43;;;3.08;;
22268;SDS011;11303;50.772;19.670;2023-05-02T10:10:04;6.70;;;5.13;;
22268;SDS011;11303;50.772;19.670;2023-05-02T10:12:07;6.60;;;3.08;;
22268;SDS011;11303;50.772;19.670;2023-05-02T10:14:08;8.82;;;3.25;;
22268;SDS011;11303;50.772;19.670;2023-05-02T10:16:11;8.75;;;3.35;;
22268;SDS011;11303;50.772;19.670;2023-05-02T10:18:14;8.60;;;3.80;;
22268;SDS011;11303;50.772;19.670;2023-05-02T10:20:20;4.65;;;2.80;;
22268;SDS011;11303;50.772;19.670;2023-05-02T10:22:22;3.10;;;2.47;;
22268;SDS011;11303;50.772;19.670;2023-05-02T10:24:25;7.00;;;3.47;;
22268;SDS011;11303;50.772;19.670;2023-05-02T10:26:27;4.65;;;2.85;;
22268;SDS011;11303;50.772;19.670;2023-05-02T10:28:29;6.32;;;4.50;;
22268;SDS011;11303;50.772;19.670;2023-05-02T10:30:30;11.18;;;4.15;;
22268;SDS011;11303;50.772;19.670;2023-05-02T10:32:33;4.50;;;2.92;;
22268;SDS011;11303;50.772;19.670;2023-05-02T10:34:37;6.75;;;4.45;;
22268;SDS011;11303;50.772;19.670;2023-05-02T10:36:39;6.20;;;4.07;;
22268;SDS011;11303;50.772;19.670;2023-05-02T10:38:40;6.30;;;3.30;;
22268;SDS011;11303;50.772;19.670;2023-05-02T10:40:42;6.35;;;3.78;;
22268;SDS011;11303;50.772;19.670;2023-05-02T10:42:47;6.15;;;3.47;;
22268;SDS011;11303;50.772;19.670;2023-05-02T10:44:51;5.03;;;3.30;;
22268;SDS011;11303;50.772;19.670;2023-05-02T10:46:53;16.60;;;5.57;;
22268;SDS011;11303;50.772;19.670;2023-05-02T10:49:01;11.35;;;4.93;;
22268;SDS011;11303;50.772;19.670;2023-05-02T10:51:03;10.13;;;4.40;;
22268;SDS011;11303;50.772;19.670;2023-05-02T10:55:22;15.75;;;4.88;;
22268;SDS011;11303;50.772;19.670;2023-05-02T10:57:24;8.43;;;4.50;;
22268;SDS011;11303;50.772;19.670;2023-05-02T10:59:26;8.57;;;4.15;;
22268;SDS011;11303;50.772;19.670;2023-05-02T11:04:15;15.43;;;4.68;;
22268;SDS011;11303;50.772;19.670;2023-05-02T11:06:04;9.65;;;3.83;;
22268;SDS011;11303;50.772;19.670;2023-05-02T11:14:56;12.50;;;4.63;;
22268;SDS011;11303;50.772;19.670;2023-05-02T11:19:00;6.60;;;4.18;;
22268;SDS011;11303;50.772;19.670;2023-05-02T11:21:23;8.98;;;6.05;;
22268;SDS011;11303;50.772;19.670;2023-05-02T11:23:23;12.43;;;7.32;;
22268;SDS011;11303;50.772;19.670;2023-05-02T11:25:31;8.45;;;5.97;;
22268;SDS011;11303;50.772;19.670;2023-05-02T11:29:54;9.80;;;5.22;;
22268;SDS011;11303;50.772;19.670;2023-05-02T11:31:56;6.63;;;4.00;;
22268;SDS011;11303;50.772;19.670;2023-05-02T11:33:58;7.50;;;4.72;;
22268;SDS011;11303;50.772;19.670;2023-05-02T11:36:00;8.43;;;4.70;;
22268;SDS011;11303;50.772;19.670;2023-05-02T11:38:03;14.45;;;5.78;;
22268;SDS011;11303;50.772;19.670;2023-05-02T11:40:11;10.07;;;5.53;;
22268;SDS011;11303;50.772;19.670;2023-05-02T11:42:29;21.58;;;4.72;;
22268;SDS011;11303;50.772;19.670;2023-05-02T11:44:33;10.43;;;6.03;;
22268;SDS011;11303;50.772;19.670;2023-05-02T11:46:52;15.02;;;6.93;;
22268;SDS011;11303;50.772;19.670;2023-05-02T11:48:54;227.90;;;66.10;;
22268;SDS011;11303;50.772;19.670;2023-05-02T11:50:58;29.63;;;22.90;;
22268;SDS011;11303;50.772;19.670;2023-05-02T11:53:03;10.50;;;5.05;;
22268;SDS011;11303;50.772;19.670;2023-05-02T11:55:10;9.68;;;5.25;;
22268;SDS011;11303;50.772;19.670;2023-05-02T11:57:12;8.68;;;4.43;;
22268;SDS011;11303;50.772;19.670;2023-05-02T11:59:13;9.43;;;3.65;;
22268;SDS011;11303;50.772;19.670;2023-05-02T12:01:15;6.30;;;3.50;;
22268;SDS011;11303;50.772;19.670;2023-05-02T12:05:28;7.03;;;3.42;;
22268;SDS011;11303;50.772;19.670;2023-05-02T12:07:37;6.63;;;3.58;;
22268;SDS011;11303;50.772;19.670;2023-05-02T12:09:52;7.03;;;4.47;;
22268;SDS011;11303;50.772;19.670;2023-05-02T12:11:53;8.32;;;4.20;;
22268;SDS011;11303;50.772;19.670;2023-05-02T12:13:55;5.60;;;3.75;;
22268;SDS011;11303;50.772;19.670;2023-05-02T12:15:56;6.32;;;3.60;;
22268;SDS011;11303;50.772;19.670;2023-05-02T12:17:58;4.32;;;2.95;;
22268;SDS011;11303;50.772;19.670;2023-05-02T12:20:01;5.45;;;3.30;;
22268;SDS011;11303;50.772;19.670;2023-05-02T12:22:03;5.20;;;3.47;;
22268;SDS011;11303;50.772;19.670;2023-05-02T12:24:05;4.30;;;3.03;;
22268;SDS011;11303;50.772;19.670;2023-05-02T12:26:20;7.68;;;2.88;;
22268;SDS011;11303;50.772;19.670;2023-05-02T12:28:22;6.85;;;3.65;;
22268;SDS011;11303;50.772;19.670;2023-05-02T12:30:25;6.25;;;3.50;;
22268;SDS011;11303;50.772;19.670;2023-05-02T12:32:27;5.22;;;3.47;;
22268;SDS011;11303;50.772;19.670;2023-05-02T12:34:31;5.15;;;2.45;;
22268;SDS011;11303;50.772;19.670;2023-05-02T12:36:32;7.55;;;3.00;;
22268;SDS011;11303;50.772;19.670;2023-05-02T12:38:34;5.50;;;3.05;;
22268;SDS011;11303;50.772;19.670;2023-05-02T12:40:36;4.30;;;2.95;;